Time;durP1;ratioP1;P1;durP2;ratioP2;P2;SDS_P1;SDS_P2;PMS_P1;PMS_P2;Temp;Humidity;BMP_temperature;BMP_pressure;BME280_temperature;BME280_humidity;BME280_pressure;Samples;Min_cycle;Max_cycle;Signal;HPM_P1;HPM_P2
2024/02/16 00:00:25;;;;;;;17.38;11.23;;;;;;;-145.63;55.57;38926.47;5023144;28;20029;-66
2024/02/16 00:02:51;;;;;;;17.95;10.82;;;;;;;-145.63;55.64;38922.56;5029661;28;20034;-66
2024/02/16 00:05:17;;;;;;;20.73;12.68;;;;;;;-145.63;55.52;38928.44;5014160;28;20045;-66
2024/02/16 00:07:42;;;;;;;18.98;11.43;;;;;;;-145.63;55.76;38926.47;5033748;28;20033;-66
2024/02/16 00:10:09;;;;;;;21.27;12.60;;;;;;;-145.63;55.87;38930.38;5033884;28;20029;-67
2024/02/16 00:12:35;;;;;;;17.85;11.63;;;;;;;-145.63;55.83;38918.66;5033951;28;20037;-66
2024/02/16 00:15:02;;;;;;;20.55;11.95;;;;;;;-145.63;55.33;38879.53;5028694;28;20088;-66
2024/02/16 00:17:28;;;;;;;19.95;12.40;;;;;;;-145.63;55.42;38946.03;5016384;28;20025;-66
2024/02/16 00:19:57;;;;;;;21.80;12.20;;;;;;;-145.63;55.40;38926.47;5054037;28;20082;-66
2024/02/16 00:22:23;;;;;;;20.83;11.82;;;;;;;-145.63;54.38;38916.69;5038798;28;20045;-67
2024/02/16 00:24:49;;;;;;;20.17;11.93;;;;;;;-145.63;55.09;38930.38;5032892;28;20117;-67
2024/02/16 00:27:15;;;;;;;18.27;11.43;;;;;;;-145.63;55.60;38895.19;5032179;28;20505;-66
2024/02/16 00:29:41;;;;;;;20.67;11.50;;;;;;;-145.63;55.70;38934.28;5046134;28;20037;-66
2024/02/16 00:32:07;;;;;;;25.45;11.40;;;;;;;-145.63;55.74;38906.91;5036397;28;20057;-68
2024/02/16 00:34:34;;;;;;;16.23;11.18;;;;;;;-145.63;55.38;38924.50;5034730;28;20052;-67
2024/02/16 00:37:00;;;;;;;17.95;11.32;;;;;;;-145.63;56.04;38934.28;5020797;28;20046;-67
2024/02/16 00:39:25;;;;;;;16.88;10.30;;;;;;;-145.63;55.24;38942.13;5027694;28;20033;-67
2024/02/16 00:41:51;;;;;;;21.33;11.90;;;;;;;-145.63;56.26;38901.03;5036437;28;20038;-67
2024/02/16 00:44:17;;;;;;;16.27;11.35;;;;;;;-145.63;56.02;38840.44;5019950;28;20041;-69
2024/02/16 00:46:44;;;;;;;21.88;11.55;;;;;;;-145.63;56.59;38914.72;5039265;28;20036;-67
2024/02/16 00:49:12;;;;;;;20.33;12.40;;;;;;;-145.63;56.49;38920.59;5024921;28;20037;-69
2024/02/16 00:51:38;;;;;;;17.40;11.18;;;;;;;-145.63;56.36;38901.03;5039423;28;20041;-68
2024/02/16 00:54:04;;;;;;;21.00;11.98;;;;;;;-145.63;56.30;38895.19;5033814;28;20520;-68
2024/02/16 00:56:30;;;;;;;20.23;12.40;;;;;;;-145.63;56.67;38906.91;5058594;28;20060;-65
2024/02/16 00:58:56;;;;;;;19.58;12.63;;;;;;;-145.63;56.20;38904.97;5039886;28;20065;-66
2024/02/16 01:01:22;;;;;;;19.02;11.88;;;;;;;-145.63;55.95;38910.81;5023436;28;20119;-66
2024/02/16 01:03:48;;;;;;;17.58;11.10;;;;;;;-145.63;55.89;38916.69;5031237;28;20037;-67
2024/02/16 01:06:14;;;;;;;19.30;11.85;;;;;;;-145.63;55.89;38936.25;5046996;28;20028;-66
2024/02/16 01:08:40;;;;;;;22.75;12.52;;;;;;;-145.63;55.17;38910.81;5057932;28;20508;-66
2024/02/16 01:11:06;;;;;;;17.23;11.98;;;;;;;-145.63;55.07;38951.88;5039522;28;20026;-66
2024/02/16 01:13:32;;;;;;;17.23;11.45;;;;;;;-145.63;54.86;38938.19;5057640;28;20029;-67
2024/02/16 01:15:58;;;;;;;18.73;11.02;;;;;;;-145.63;55.39;38920.59;5046825;28;20120;-68
2024/02/16 01:18:25;;;;;;;21.23;11.45;;;;;;;-145.63;55.15;38938.19;5031695;28;20116;-65
2024/02/16 01:20:51;;;;;;;20.13;12.45;;;;;;;-145.63;55.24;38926.47;5020014;28;20029;-68
2024/02/16 01:23:16;;;;;;;15.93;10.32;;;;;;;-145.63;54.95;38910.81;5019633;28;20040;-66
2024/02/16 01:25:42;;;;;;;18.67;11.23;;;;;;;-145.63;54.95;38928.44;5038675;28;20033;-66
2024/02/16 01:28:07;;;;;;;18.40;11.68;;;;;;;-145.63;55.24;38932.34;5025491;28;20034;-68
2024/02/16 01:30:33;;;;;;;19.23;11.80;;;;;;;-145.63;55.05;38930.38;5028865;28;20021;-67
2024/02/16 01:32:58;;;;;;;18.63;10.35;;;;;;;-145.63;55.05;38947.97;5034149;28;20065;-68
2024/02/16 01:35:24;;;;;;;20.27;12.00;;;;;;;-145.63;55.03;38926.47;5019612;28;20046;-66
2024/02/16 01:37:49;;;;;;;16.48;10.95;;;;;;;-145.63;54.84;38924.50;5037866;28;20044;-66
2024/02/16 01:40:17;;;;;;;18.30;11.70;;;;;;;-145.63;54.83;38912.78;5024215;28;20053;-66
2024/02/16 01:42:43;;;;;;;22.50;12.05;;;;;;;-145.63;54.97;38901.03;5030240;28;20091;-66
2024/02/16 01:45:11;;;;;;;20.55;11.82;;;;;;;-145.63;55.15;38904.97;5033966;28;20053;-66
2024/02/16 01:47:37;;;;;;;17.88;10.93;;;;;;;-145.63;55.04;38901.03;5020952;28;20030;-65
2024/02/16 01:50:03;;;;;;;20.60;12.65;;;;;;;-145.63;54.67;38920.59;5035744;28;20045;-68
2024/02/16 01:52:30;;;;;;;19.55;11.25;;;;;;;-145.63;55.26;38918.66;5036273;28;20119;-66
2024/02/16 01:54:58;;;;;;;18.55;12.00;;;;;;;-145.63;55.20;38912.78;5023934;28;20371;-68
2024/02/16 01:57:24;;;;;;;19.48;11.73;;;;;;;-145.63;55.31;38912.78;5023546;28;20087;-68
2024/02/16 01:59:50;;;;;;;18.15;12.43;;;;;;;-145.63;55.20;38926.47;5033285;28;20042;-67
2024/02/16 02:02:15;;;;;;;21.15;11.65;;;;;;;-145.63;54.57;38910.81;5016083;28;20134;-68
2024/02/16 02:04:42;;;;;;;21.02;11.07;;;;;;;-145.63;54.70;38904.97;5052758;28;20108;-68
2024/02/16 02:07:12;;;;;;;16.67;11.40;;;;;;;-145.63;54.75;38930.38;5041931;28;20044;-67
2024/02/16 02:09:38;;;;;;;20.53;11.43;;;;;;;-145.63;54.68;38951.88;5035613;28;20026;-68
2024/02/16 02:12:03;;;;;;;19.05;11.25;;;;;;;-145.63;55.05;38910.81;5030184;28;20928;-67
2024/02/16 02:14:29;;;;;;;17.88;11.05;;;;;;;-145.63;54.55;38934.28;5015709;28;20096;-68
2024/02/16 02:16:54;;;;;;;17.15;12.00;;;;;;;-145.63;54.76;38920.59;5035597;28;20021;-68
2024/02/16 02:19:20;;;;;;;24.17;11.45;;;;;;;-145.63;54.44;38914.72;5050821;28;20029;-68
2024/02/16 02:21:45;;;;;;;18.33;11.55;;;;;;;-145.63;54.04;38918.66;5045542;28;20033;-67
2024/02/16 02:24:11;;;;;;;16.33;10.45;;;;;;;-145.63;54.24;38930.38;5030863;28;20475;-67
2024/02/16 02:26:38;;;;;;;19.15;11.40;;;;;;;-145.63;54.13;38922.56;5017092;28;20057;-68
2024/02/16 02:29:04;;;;;;;17.88;11.43;;;;;;;-145.63;54.25;38918.66;5035731;28;20033;-67
2024/02/16 02:31:30;;;;;;;17.38;11.48;;;;;;;-145.63;54.27;38928.44;5033653;28;20041;-69
2024/02/16 02:33:55;;;;;;;19.98;12.40;;;;;;;-145.63;54.12;38973.41;5036171;28;20061;-68
2024/02/16 02:36:21;;;;;;;17.35;11.15;;;;;;;-145.63;53.76;38930.38;5028386;28;20034;-67
2024/02/16 02:38:47;;;;;;;16.60;11.18;;;;;;;-145.63;54.40;38936.25;5020475;28;20056;-69
2024/02/16 02:41:16;;;;;;;21.25;11.65;;;;;;;-145.63;54.47;38904.97;5055344;28;20462;-68
2024/02/16 02:43:41;;;;;;;16.25;10.75;;;;;;;-145.63;54.40;38932.34;5037267;28;20033;-69
2024/02/16 02:46:07;;;;;;;18.67;11.10;;;;;;;-145.63;54.59;38897.13;5022149;28;20083;-67
2024/02/16 02:48:33;;;;;;;20.15;12.20;;;;;;;-145.63;54.82;38912.78;5024061;28;20033;-66
2024/02/16 02:50:59;;;;;;;17.30;11.02;;;;;;;-145.63;54.59;38920.59;5035362;28;20112;-66
2024/02/16 02:53:28;;;;;;;19.08;11.38;;;;;;;-145.63;54.74;38858.03;5034590;28;20029;-68
2024/02/16 02:55:54;;;;;;;22.63;11.15;;;;;;;-145.63;54.55;38893.22;5015932;28;20026;-67
2024/02/16 02:58:19;;;;;;;21.30;11.10;;;;;;;-145.63;54.97;38914.72;5029256;28;20571;-66
2024/02/16 03:00:45;;;;;;;16.88;10.93;;;;;;;-145.63;55.17;38924.50;5024976;28;20040;-67
2024/02/16 03:03:10;;;;;;;19.23;11.82;;;;;;;-145.63;54.50;38906.91;5019469;28;20049;-66
2024/02/16 03:05:36;;;;;;;19.92;11.60;;;;;;;-145.63;54.80;38914.72;5034940;28;20072;-67
2024/02/16 03:08:02;;;;;;;22.00;11.05;;;;;;;-145.63;54.85;38903.00;5015095;28;20034;-68
2024/02/16 03:10:34;;;;;;;18.70;10.63;;;;;;;-145.63;54.67;38916.69;5030940;28;20109;-67
2024/02/16 03:13:00;;;;;;;19.80;11.77;;;;;;;-145.63;54.47;38895.19;5034835;28;20122;-68
2024/02/16 03:15:26;;;;;;;19.52;11.25;;;;;;;-145.63;54.65;38928.44;5034655;28;20044;-66
2024/02/16 03:17:51;;;;;;;20.67;12.13;;;;;;;-145.63;54.19;38949.94;5031637;28;20030;-66
2024/02/16 03:20:17;;;;;;;16.83;11.30;;;;;;;-145.63;54.42;38903.00;5014873;28;20026;-64
2024/02/16 03:22:43;;;;;;;16.58;11.38;;;;;;;-145.63;54.31;38920.59;5031929;28;20057;-65
2024/02/16 03:25:09;;;;;;;20.25;11.98;;;;;;;-145.63;54.25;38930.38;5025647;28;20083;-66
2024/02/16 03:27:34;;;;;;;18.83;11.30;;;;;;;-145.63;54.41;38903.00;5034440;28;20037;-64
2024/02/16 03:30:00;;;;;;;18.67;11.60;;;;;;;-145.63;54.21;38906.91;5032320;28;20030;-65
2024/02/16 03:32:26;;;;;;;18.75;12.15;;;;;;;-145.63;54.12;38928.44;5034068;28;20140;-65
2024/02/16 03:34:51;;;;;;;18.63;12.25;;;;;;;-145.63;54.56;38938.19;5034278;28;20061;-64
2024/02/16 03:37:17;;;;;;;18.23;11.73;;;;;;;-145.63;54.61;38932.34;5019625;28;20395;-65
2024/02/16 03:39:43;;;;;;;22.33;12.57;;;;;;;-145.63;54.59;38930.38;5023828;28;20080;-66
2024/02/16 03:42:09;;;;;;;18.25;12.00;;;;;;;-145.63;54.67;38932.34;5033100;28;20079;-66
2024/02/16 03:44:35;;;;;;;20.60;11.77;;;;;;;-145.63;54.71;38899.09;5033682;28;20029;-66
2024/02/16 03:47:00;;;;;;;20.80;11.65;;;;;;;-145.63;54.86;38910.81;5014274;28;20041;-66
2024/02/16 03:49:28;;;;;;;18.08;11.50;;;;;;;-145.63;55.05;38946.03;5029083;28;20402;-66
2024/02/16 03:51:54;;;;;;;17.38;12.32;;;;;;;-145.63;54.70;38922.56;5033735;28;20033;-66
2024/02/16 03:54:20;;;;;;;23.25;13.05;;;;;;;-145.63;54.47;38928.44;5033784;28;20103;-65
2024/02/16 03:56:45;;;;;;;18.17;11.38;;;;;;;-145.63;54.64;38942.13;5033595;28;20120;-67
2024/02/16 03:59:11;;;;;;;18.98;12.48;;;;;;;-145.63;54.69;38940.16;5033620;28;20033;-66
2024/02/16 04:01:36;;;;;;;20.33;12.70;;;;;;;-145.63;54.93;38899.09;5032255;28;20037;-66
2024/02/16 04:04:03;;;;;;;19.88;12.07;;;;;;;-145.63;54.82;38908.88;5033239;28;20044;-66
2024/02/16 04:06:28;;;;;;;21.92;12.38;;;;;;;-145.63;54.73;38930.38;5026196;28;20026;-66
2024/02/16 04:08:55;;;;;;;20.35;12.30;;;;;;;-145.63;54.55;38891.28;5015911;28;20034;-67
2024/02/16 04:11:21;;;;;;;20.77;12.45;;;;;;;-145.63;54.92;38901.03;5032253;28;20040;-65
2024/02/16 04:13:47;;;;;;;20.15;12.75;;;;;;;-145.63;55.04;38901.03;5033781;28;20095;-65
2024/02/16 04:16:13;;;;;;;18.52;12.43;;;;;;;-145.63;54.40;38910.81;5031561;28;20512;-65
2024/02/16 04:18:38;;;;;;;20.40;12.85;;;;;;;-145.63;54.63;38922.56;5025466;28;20032;-66
2024/02/16 04:21:04;;;;;;;20.92;12.32;;;;;;;-145.63;54.34;38924.50;5013801;28;20084;-67
2024/02/16 04:23:29;;;;;;;21.13;12.95;;;;;;;-145.63;54.84;38901.03;5014125;28;20472;-66
2024/02/16 04:25:55;;;;;;;22.48;12.73;;;;;;;-145.63;54.82;38899.09;5032297;28;20111;-66
2024/02/16 04:28:21;;;;;;;19.60;11.50;;;;;;;-145.63;54.87;38932.34;5032895;28;20091;-65
2024/02/16 04:30:47;;;;;;;19.40;12.38;;;;;;;-145.63;54.94;38912.78;5032474;28;20717;-66
2024/02/16 04:33:13;;;;;;;21.27;12.95;;;;;;;-145.63;54.82;38946.03;5028739;28;20042;-66
2024/02/16 04:35:38;;;;;;;20.88;13.25;;;;;;;-145.63;54.50;38936.25;5017337;28;20037;-67
2024/02/16 04:38:04;;;;;;;22.52;12.43;;;;;;;-145.63;54.90;38914.72;5013360;28;20455;-67
2024/02/16 04:40:36;;;;;;;22.20;13.43;;;;;;;-145.63;54.84;38930.38;5013830;28;20030;-65
2024/02/16 04:43:02;;;;;;;23.52;13.85;;;;;;;-145.63;54.96;38930.38;5044483;28;20036;-68
2024/02/16 04:45:30;;;;;;;22.85;13.43;;;;;;;-145.63;55.03;38930.38;5046539;28;20030;-66
2024/02/16 04:47:55;;;;;;;22.27;13.10;;;;;;;-145.63;55.25;38932.34;5030271;28;20032;-65
2024/02/16 04:50:21;;;;;;;20.45;12.98;;;;;;;-145.63;55.26;38926.47;5022660;28;20057;-66
2024/02/16 04:52:46;;;;;;;23.55;13.55;;;;;;;-145.63;55.20;38938.19;5032941;28;20084;-66
2024/02/16 04:55:13;;;;;;;21.17;13.50;;;;;;;-145.63;55.10;38922.56;5020280;28;20120;-67
2024/02/16 04:57:38;;;;;;;23.10;13.60;;;;;;;-145.63;55.50;38946.03;5039553;28;20036;-65
2024/02/16 05:00:04;;;;;;;21.15;13.55;;;;;;;-145.63;55.56;38914.72;5049233;28;20034;-66
2024/02/16 05:02:37;;;;;;;21.92;12.90;;;;;;;-145.63;55.97;38930.38;5032599;28;20344;-69
2024/02/16 05:05:03;;;;;;;21.23;13.18;;;;;;;-145.63;56.26;38957.75;5032602;28;20030;-65
2024/02/16 05:07:31;;;;;;;21.73;12.60;;;;;;;-145.63;56.32;38922.56;5018111;28;20057;-65
2024/02/16 05:10:01;;;;;;;23.83;13.45;;;;;;;-145.63;56.32;38924.50;5023570;28;20041;-68
2024/02/16 05:12:26;;;;;;;23.73;14.38;;;;;;;-145.63;56.12;38914.72;5032585;28;20029;-67
2024/02/16 05:14:52;;;;;;;22.02;13.15;;;;;;;-145.63;56.16;38916.69;5034525;28;20063;-67
2024/02/16 05:17:19;;;;;;;29.30;13.60;;;;;;;-145.63;56.01;38930.38;5052819;28;20025;-65
2024/02/16 05:19:45;;;;;;;21.42;13.43;;;;;;;-145.63;55.91;38946.03;5035073;28;20025;-66
2024/02/16 05:22:14;;;;;;;21.45;12.90;;;;;;;-145.63;55.84;38891.28;5020646;28;20028;-68
2024/02/16 05:24:40;;;;;;;21.70;13.48;;;;;;;-145.63;56.09;38922.56;5029067;28;20402;-68
2024/02/16 05:27:08;;;;;;;21.00;13.60;;;;;;;-145.63;56.20;38920.59;5052623;28;20394;-68
2024/02/16 05:29:36;;;;;;;23.65;12.95;;;;;;;-145.63;56.30;38897.13;5036767;28;20036;-65
2024/02/16 05:32:02;;;;;;;25.70;13.98;;;;;;;-145.63;56.13;38910.81;5036966;28;20103;-65
2024/02/16 05:34:32;;;;;;;26.73;14.05;;;;;;;-145.63;55.95;38883.44;5021706;28;20041;-66
2024/02/16 05:37:01;;;;;;;22.73;12.30;;;;;;;-145.63;55.91;38891.28;5027568;28;20029;-65
2024/02/16 05:39:31;;;;;;;20.92;12.82;;;;;;;-145.63;55.61;38873.66;5030302;28;20036;-66
2024/02/16 05:41:57;;;;;;;23.05;13.93;;;;;;;-145.63;55.32;38903.00;5018930;28;20061;-66
2024/02/16 05:44:22;;;;;;;20.95;13.30;;;;;;;-145.63;55.61;38897.13;5036501;28;20065;-67
2024/02/16 05:46:48;;;;;;;24.48;14.25;;;;;;;-145.63;55.20;38914.72;5019282;28;20083;-65
2024/02/16 05:49:17;;;;;;;22.33;13.20;;;;;;;-145.63;55.35;38883.44;5029302;28;20454;-66
2024/02/16 05:51:58;;;;;;;21.00;14.05;;;;;;;-145.63;55.34;38877.56;5044077;28;20045;-65
2024/02/16 05:54:24;;;;;;;24.33;13.05;;;;;;;-145.63;54.96;38901.03;5043307;28;20033;-65
2024/02/16 05:56:49;;;;;;;22.58;12.98;;;;;;;-145.63;54.78;38906.91;5041086;28;20045;-66
2024/02/16 05:59:15;;;;;;;25.05;13.85;;;;;;;-145.63;54.61;38906.91;5036017;28;20447;-65
2024/02/16 06:01:40;;;;;;;22.40;13.75;;;;;;;-145.63;54.86;38901.03;5043868;28;20029;-66
2024/02/16 06:04:06;;;;;;;23.75;14.13;;;;;;;-145.63;55.00;38893.22;5034759;28;20065;-65
2024/02/16 06:06:31;;;;;;;24.67;14.27;;;;;;;-145.63;54.39;38903.00;5034885;28;20033;-64
2024/02/16 06:08:57;;;;;;;21.65;13.77;;;;;;;-145.63;54.19;38875.63;5035793;28;20046;-65
2024/02/16 06:11:22;;;;;;;22.23;13.13;;;;;;;-145.63;54.08;38899.09;5035929;28;20041;-66
2024/02/16 06:13:51;;;;;;;22.13;14.18;;;;;;;-145.63;53.90;38906.91;5035053;28;20033;-67
2024/02/16 06:16:16;;;;;;;29.95;14.65;;;;;;;-145.63;54.16;38942.13;5025432;28;20041;-66
2024/02/16 06:18:42;;;;;;;19.25;12.43;;;;;;;-145.63;53.92;38901.03;5035707;28;20076;-67
2024/02/16 06:21:08;;;;;;;22.05;13.95;;;;;;;-145.63;54.43;38903.00;5037414;28;20033;-66
2024/02/16 06:23:33;;;;;;;21.75;13.48;;;;;;;-145.63;54.42;38899.09;5035524;28;20036;-66
2024/02/16 06:25:59;;;;;;;24.38;13.77;;;;;;;-145.63;54.28;38891.28;5034936;28;20076;-65
2024/02/16 06:28:24;;;;;;;22.20;12.95;;;;;;;-145.63;54.51;38918.66;5035449;28;20105;-66
2024/02/16 06:30:50;;;;;;;21.67;14.02;;;;;;;-145.63;54.52;38910.81;5035405;28;20117;-66
2024/02/16 06:33:15;;;;;;;22.90;14.27;;;;;;;-145.63;54.08;38871.72;5047328;28;20037;-66
2024/02/16 06:35:41;;;;;;;21.73;13.20;;;;;;;-145.63;54.49;38887.34;5052145;28;20033;-66
2024/02/16 06:38:06;;;;;;;23.08;13.93;;;;;;;-145.63;54.32;38887.34;5040040;28;20042;-65
2024/02/16 06:40:32;;;;;;;22.52;12.85;;;;;;;-145.63;54.18;38904.97;5036716;28;20033;-64
2024/02/16 06:42:57;;;;;;;26.67;14.95;;;;;;;-145.63;54.25;38901.03;5040535;28;20049;-64
2024/02/16 06:45:23;;;;;;;20.85;13.75;;;;;;;-145.63;54.10;38904.97;5033227;28;20033;-66
2024/02/16 06:47:49;;;;;;;23.95;12.80;;;;;;;-145.63;54.12;38906.91;5039240;28;20050;-66
2024/02/16 06:50:14;;;;;;;24.30;13.98;;;;;;;-145.63;53.86;38920.59;5045723;28;20091;-66
2024/02/16 06:52:40;;;;;;;21.55;13.27;;;;;;;-145.63;54.30;38899.09;5035006;28;20029;-65
2024/02/16 06:55:06;;;;;;;20.88;12.98;;;;;;;-145.63;53.88;38869.75;5034575;28;20045;-65
2024/02/16 06:57:31;;;;;;;21.92;13.50;;;;;;;-145.63;54.50;38891.28;5037003;28;20478;-65
2024/02/16 06:59:57;;;;;;;25.15;14.25;;;;;;;-145.63;54.21;38908.88;5035443;28;20060;-66
2024/02/16 07:02:23;;;;;;;22.38;14.10;;;;;;;-145.63;54.22;38906.91;5034254;28;20037;-65
2024/02/16 07:04:48;;;;;;;20.60;14.02;;;;;;;-145.63;54.32;38895.19;5033540;28;20029;-66
2024/02/16 07:07:14;;;;;;;24.35;14.35;;;;;;;-145.63;53.82;38889.31;5033911;28;20386;-67
2024/02/16 07:09:40;;;;;;;21.55;13.07;;;;;;;-145.63;53.69;38916.69;5029243;28;20471;-66
2024/02/16 07:12:06;;;;;;;22.33;13.27;;;;;;;-145.63;53.73;38891.28;5033535;28;20112;-65
2024/02/16 07:14:32;;;;;;;24.13;14.90;;;;;;;-145.63;53.83;38901.03;5033679;28;20115;-66
2024/02/16 07:16:58;;;;;;;25.27;14.45;;;;;;;-145.63;54.01;38904.97;5031244;28;20458;-67
2024/02/16 07:19:24;;;;;;;24.88;14.65;;;;;;;-145.63;54.09;38904.97;5033374;28;20036;-67
2024/02/16 07:21:50;;;;;;;21.08;13.75;;;;;;;-145.63;53.94;38922.56;5033953;28;20528;-68
2024/02/16 07:24:16;;;;;;;24.48;13.35;;;;;;;-145.63;53.99;38885.41;5033365;28;20037;-66
2024/02/16 07:26:42;;;;;;;22.15;14.13;;;;;;;-145.63;53.85;38891.28;5033568;28;20132;-66
2024/02/16 07:29:07;;;;;;;24.50;14.13;;;;;;;-145.63;54.33;38875.63;5033838;28;20037;-66
2024/02/16 07:31:36;;;;;;;23.50;14.25;;;;;;;-145.63;54.32;38897.13;5033027;28;20099;-66
2024/02/16 07:34:02;;;;;;;27.08;14.85;;;;;;;-145.63;53.98;38903.00;5034076;28;20115;-66
2024/02/16 07:36:28;;;;;;;24.52;14.73;;;;;;;-145.63;53.97;38891.28;5033801;28;20461;-64
2024/02/16 07:38:53;;;;;;;22.67;13.98;;;;;;;-145.63;53.68;38906.91;5033810;28;20040;-64
2024/02/16 07:41:19;;;;;;;22.38;13.85;;;;;;;-145.63;53.61;38885.41;5024343;28;20467;-65
2024/02/16 07:43:44;;;;;;;21.58;14.68;;;;;;;-145.63;53.42;38912.78;5029148;28;20084;-65
2024/02/16 07:46:10;;;;;;;23.10;14.60;;;;;;;-145.63;53.34;38887.34;5040287;28;20045;-67
2024/02/16 07:48:35;;;;;;;26.45;14.50;;;;;;;-145.63;53.73;38891.28;5031150;28;20087;-66
2024/02/16 07:51:03;;;;;;;23.20;14.88;;;;;;;-145.63;53.50;38906.91;5025082;28;20033;-64
2024/02/16 07:53:29;;;;;;;25.15;15.32;;;;;;;-145.63;53.34;38936.25;5034296;28;20033;-67
2024/02/16 07:55:54;;;;;;;24.95;15.63;;;;;;;-145.63;53.84;38881.50;5021420;28;20109;-66
2024/02/16 07:58:20;;;;;;;23.15;14.48;;;;;;;-145.63;53.41;38916.69;5035071;28;20079;-66
2024/02/16 08:00:45;;;;;;;26.58;15.63;;;;;;;-145.63;53.62;38852.16;5026134;28;20037;-65
2024/02/16 08:03:11;;;;;;;25.10;14.88;;;;;;;-145.63;53.71;38877.56;5027999;28;20045;-63
2024/02/16 08:05:37;;;;;;;23.55;14.50;;;;;;;-145.63;53.21;38895.19;5053179;28;20029;-63
2024/02/16 08:08:03;;;;;;;27.42;15.40;;;;;;;-145.63;53.17;38916.69;5031294;28;20055;-65
2024/02/16 08:10:28;;;;;;;31.13;15.48;;;;;;;-145.63;52.69;38936.25;5027069;28;20068;-66
2024/02/16 08:12:54;;;;;;;28.00;15.77;;;;;;;-145.63;52.93;38940.16;5032733;28;20029;-65
2024/02/16 08:15:23;;;;;;;27.02;16.15;;;;;;;-145.63;52.52;38926.47;5028977;28;20030;-64
2024/02/16 08:17:52;;;;;;;25.83;15.60;;;;;;;-145.63;52.80;38928.44;5032470;28;20079;-64
2024/02/16 08:20:18;;;;;;;24.05;15.32;;;;;;;-145.63;52.90;38942.13;5018993;28;20042;-65
2024/02/16 08:22:43;;;;;;;24.95;15.70;;;;;;;-145.63;52.95;38928.44;5023609;28;20036;-64
2024/02/16 08:25:09;;;;;;;25.05;15.40;;;;;;;-145.63;52.65;38903.00;5018147;28;20033;-66
2024/02/16 08:27:35;;;;;;;26.95;14.65;;;;;;;-145.63;52.84;38910.81;5031858;28;20037;-65
2024/02/16 08:30:03;;;;;;;23.70;14.73;;;;;;;-145.63;53.23;38932.34;5032730;28;20029;-66
2024/02/16 08:32:29;;;;;;;27.20;16.40;;;;;;;-145.63;53.85;38899.09;5032619;28;20057;-64
2024/02/16 08:34:55;;;;;;;30.83;16.92;;;;;;;-145.63;53.39;38897.13;5030512;28;20107;-67
2024/02/16 08:37:21;;;;;;;30.58;17.63;;;;;;;-145.63;53.29;38891.28;5027975;28;20112;-65
2024/02/16 08:39:47;;;;;;;25.67;15.90;;;;;;;-145.63;53.67;38914.72;5029263;28;20029;-66
2024/02/16 08:42:13;;;;;;;27.63;16.15;;;;;;;-145.63;52.48;38893.22;5032305;28;20040;-66
2024/02/16 08:44:40;;;;;;;26.88;15.43;;;;;;;-145.63;52.45;38961.66;5028928;28;20048;-66
2024/02/16 08:47:07;;;;;;;26.00;16.20;;;;;;;-145.63;52.44;38940.16;5015818;28;20567;-64
2024/02/16 08:49:33;;;;;;;24.73;15.88;;;;;;;-145.63;52.10;38910.81;5043719;28;20036;-64
2024/02/16 08:51:59;;;;;;;25.35;15.38;;;;;;;-145.63;52.33;38893.22;5032738;28;20053;-66
2024/02/16 08:54:25;;;;;;;27.58;16.02;;;;;;;-145.63;52.71;38930.38;5048126;28;20037;-66
2024/02/16 08:56:52;;;;;;;28.58;16.90;;;;;;;-145.63;53.54;38942.13;5026361;28;20434;-65
2024/02/16 08:59:18;;;;;;;25.98;16.05;;;;;;;-145.63;53.35;38926.47;5027646;28;20060;-66
2024/02/16 09:01:44;;;;;;;26.10;16.20;;;;;;;-145.63;52.98;38942.13;5036324;28;20061;-65
2024/02/16 09:04:09;;;;;;;27.08;16.63;;;;;;;-145.63;52.42;38940.16;5035966;28;20045;-66
2024/02/16 09:06:35;;;;;;;26.48;17.55;;;;;;;-145.63;52.52;38918.66;5036416;28;20032;-65
2024/02/16 09:09:01;;;;;;;25.40;15.68;;;;;;;-145.63;52.35;38944.06;5036820;28;20037;-65
2024/02/16 09:11:27;;;;;;;28.20;16.45;;;;;;;-145.63;52.23;38910.81;5036697;28;20526;-65
2024/02/16 09:13:53;;;;;;;24.13;16.02;;;;;;;-145.63;52.46;38926.47;5050935;28;20039;-65
2024/02/16 09:16:19;;;;;;;29.10;17.25;;;;;;;-145.63;52.46;38930.38;5044349;28;20037;-65
2024/02/16 09:18:45;;;;;;;26.42;16.52;;;;;;;-145.63;52.79;38926.47;5036208;28;20056;-66
2024/02/16 09:21:10;;;;;;;26.67;16.95;;;;;;;-145.63;52.46;38906.91;5034830;28;20045;-65
2024/02/16 09:23:36;;;;;;;30.05;16.60;;;;;;;-145.63;52.19;38936.25;5039164;28;20032;-65
2024/02/16 09:26:02;;;;;;;24.88;14.90;;;;;;;-145.63;52.12;38901.03;5050186;28;20109;-66
2024/02/16 09:28:29;;;;;;;26.92;16.92;;;;;;;-145.63;52.26;38922.56;5033368;28;20052;-65
2024/02/16 09:30:57;;;;;;;27.38;17.08;;;;;;;-145.63;52.28;38895.19;5036867;28;20045;-66
2024/02/16 09:33:27;;;;;;;27.13;16.80;;;;;;;-145.63;52.19;38936.25;5045131;28;20114;-65
2024/02/16 09:35:53;;;;;;;30.27;17.25;;;;;;;-145.63;52.05;38955.81;5055895;28;20340;-67
2024/02/16 09:38:20;;;;;;;31.80;17.60;;;;;;;-145.63;51.98;38942.13;5036223;28;20098;-65
2024/02/16 09:40:45;;;;;;;26.13;16.42;;;;;;;-145.63;52.23;38910.81;5036057;28;20502;-67
2024/02/16 09:43:28;;;;;;;29.65;16.85;;;;;;;-145.63;52.19;38893.22;5036085;28;20041;-66
2024/02/16 09:45:59;;;;;;;24.85;16.17;;;;;;;-145.63;52.44;38904.97;5036114;28;20737;-66
2024/02/16 09:48:29;;;;;;;25.50;16.95;;;;;;;-145.63;52.34;38914.72;5032800;28;20461;-64
2024/02/16 09:51:00;;;;;;;26.48;16.63;;;;;;;-145.63;52.42;38928.44;5036203;28;20049;-65
2024/02/16 09:53:28;;;;;;;28.50;17.23;;;;;;;-145.63;52.00;38889.31;5024542;28;20037;-66
2024/02/16 09:55:54;;;;;;;24.38;15.98;;;;;;;-145.63;52.10;38912.78;5036712;28;20037;-64
2024/02/16 09:58:19;;;;;;;27.67;17.10;;;;;;;-145.63;51.67;38901.03;5029631;28;21329;-66
2024/02/16 10:00:56;;;;;;;26.42;16.20;;;;;;;-145.63;51.60;38885.41;5029870;28;20042;-67
2024/02/16 10:03:34;;;;;;;28.85;16.40;;;;;;;-145.63;51.31;38914.72;5023136;28;20116;-65
2024/02/16 10:06:07;;;;;;;26.38;16.85;;;;;;;-145.63;51.58;38938.19;5035538;28;20037;-66
2024/02/16 10:08:34;;;;;;;27.83;16.08;;;;;;;-145.63;52.11;38916.69;5024291;28;20065;-66
2024/02/16 10:11:04;;;;;;;26.50;17.10;;;;;;;-145.63;52.06;38922.56;5034727;28;20522;-67
2024/02/16 10:13:30;;;;;;;25.50;16.88;;;;;;;-145.63;51.84;38942.13;5032329;28;20033;-65
2024/02/16 10:16:08;;;;;;;29.63;18.02;;;;;;;-145.63;52.06;38930.38;5019678;28;20041;-66
2024/02/16 10:18:35;;;;;;;27.55;16.60;;;;;;;-145.63;52.75;38906.91;5034292;28;20037;-68
2024/02/16 10:21:01;;;;;;;26.85;16.35;;;;;;;-145.63;53.49;38918.66;5021371;28;20095;-66
2024/02/16 10:23:27;;;;;;;27.17;17.05;;;;;;;-145.63;53.42;38910.81;5038509;28;20068;-66
2024/02/16 10:25:54;;;;;;;27.00;17.30;;;;;;;-145.63;52.78;38938.19;5023383;28;20403;-68
2024/02/16 10:28:26;;;;;;;27.67;18.05;;;;;;;-145.63;53.09;38920.59;5034241;28;20035;-65
2024/02/16 10:30:53;;;;;;;28.00;17.65;;;;;;;-145.63;53.35;38924.50;5034743;28;20060;-65
2024/02/16 10:33:19;;;;;;;30.30;19.30;;;;;;;-145.63;53.15;38924.50;5033979;28;20030;-64
2024/02/16 10:35:46;;;;;;;27.83;17.48;;;;;;;-145.63;52.73;38936.25;5031376;28;20124;-66
2024/02/16 10:38:13;;;;;;;32.95;17.75;;;;;;;-145.63;52.77;38946.03;5020958;28;20471;-66
2024/02/16 10:40:40;;;;;;;27.13;17.40;;;;;;;-145.63;52.73;38975.34;5035195;28;20082;-66
2024/02/16 10:43:07;;;;;;;25.75;16.95;;;;;;;-145.63;52.96;38969.50;5040825;28;20517;-66
2024/02/16 10:45:37;;;;;;;30.15;19.20;;;;;;;-145.63;53.15;38922.56;5030889;28;20034;-68
2024/02/16 10:48:05;;;;;;;28.08;17.58;;;;;;;-145.63;53.57;38901.03;5032541;28;20113;-67
2024/02/16 10:50:33;;;;;;;29.33;17.33;;;;;;;-145.63;53.11;38883.44;5034672;28;20042;-66
2024/02/16 10:53:03;;;;;;;27.55;17.77;;;;;;;-145.63;53.14;38949.94;5034932;28;20033;-68
2024/02/16 10:55:29;;;;;;;27.63;17.58;;;;;;;-145.63;52.91;38961.66;5034612;28;20509;-66
2024/02/16 10:57:58;;;;;;;31.35;18.95;;;;;;;-145.63;53.08;38873.66;5040734;28;20072;-66